sensor_id;sensor_type;location;lat;lon;timestamp;P1;durP1;ratioP1;P2;durP2;ratioP2
57023;SDS011;42916;54.346;18.562;2023-09-19T00:00:20;21.10;;;17.00;;
57023;SDS011;42916;54.346;18.562;2023-09-19T00:03:08;22.10;;;17.00;;
57023;SDS011;42916;54.346;18.562;2023-09-19T00:05:37;21.90;;;17.90;;
57023;SDS011;42916;54.346;18.562;2023-09-19T00:08:05;21.80;;;19.10;;
57023;SDS011;42916;54.346;18.562;2023-09-19T00:10:32;22.30;;;19.30;;
57023;SDS011;42916;54.346;18.562;2023-09-19T00:13:02;22.80;;;18.80;;
57023;SDS011;42916;54.346;18.562;2023-09-19T00:15:37;25.00;;;19.40;;
57023;SDS011;42916;54.346;18.562;2023-09-19T00:18:05;24.70;;;19.70;;
57023;SDS011;42916;54.346;18.562;2023-09-19T00:20:36;22.60;;;19.70;;
57023;SDS011;42916;54.346;18.562;2023-09-19T00:23:03;27.30;;;19.40;;
57023;SDS011;42916;54.346;18.562;2023-09-19T00:25:31;21.70;;;18.20;;
57023;SDS011;42916;54.346;18.562;2023-09-19T00:27:58;21.70;;;16.60;;
57023;SDS011;42916;54.346;18.562;2023-09-19T00:30:25;20.50;;;16.30;;
57023;SDS011;42916;54.346;18.562;2023-09-19T00:32:52;24.90;;;18.70;;
57023;SDS011;42916;54.346;18.562;2023-09-19T00:35:19;21.50;;;18.60;;
57023;SDS011;42916;54.346;18.562;2023-09-19T00:37:46;23.00;;;18.50;;
57023;SDS011;42916;54.346;18.562;2023-09-19T00:40:13;24.00;;;19.10;;
57023;SDS011;42916;54.346;18.562;2023-09-19T00:42:42;24.50;;;20.20;;
57023;SDS011;42916;54.346;18.562;2023-09-19T00:45:11;22.30;;;19.00;;
57023;SDS011;42916;54.346;18.562;2023-09-19T00:47:40;21.80;;;18.40;;
57023;SDS011;42916;54.346;18.562;2023-09-19T00:50:08;25.40;;;20.20;;
57023;SDS011;42916;54.346;18.562;2023-09-19T00:52:37;27.50;;;19.00;;
57023;SDS011;42916;54.346;18.562;2023-09-19T00:55:06;23.50;;;17.30;;
57023;SDS011;42916;54.346;18.562;2023-09-19T00:57:35;19.30;;;16.40;;
57023;SDS011;42916;54.346;18.562;2023-09-19T01:00:05;20.50;;;16.30;;
57023;SDS011;42916;54.346;18.562;2023-09-19T01:02:34;21.60;;;17.80;;
57023;SDS011;42916;54.346;18.562;2023-09-19T01:05:01;22.60;;;18.70;;
57023;SDS011;42916;54.346;18.562;2023-09-19T01:07:31;24.40;;;19.80;;
57023;SDS011;42916;54.346;18.562;2023-09-19T01:10:05;24.30;;;20.00;;
57023;SDS011;42916;54.346;18.562;2023-09-19T01:12:41;25.40;;;20.10;;
57023;SDS011;42916;54.346;18.562;2023-09-19T01:16:03;25.80;;;20.00;;
57023;SDS011;42916;54.346;18.562;2023-09-19T01:18:18;22.80;;;19.00;;
57023;SDS011;42916;54.346;18.562;2023-09-19T01:29:36;25.90;;;19.90;;
57023;SDS011;42916;54.346;18.562;2023-09-19T01:32:06;23.40;;;20.10;;
57023;SDS011;42916;54.346;18.562;2023-09-19T01:34:54;25.90;;;20.70;;
57023;SDS011;42916;54.346;18.562;2023-09-19T01:37:30;24.60;;;21.00;;
57023;SDS011;42916;54.346;18.562;2023-09-19T01:40:07;24.10;;;19.60;;
57023;SDS011;42916;54.346;18.562;2023-09-19T01:47:59;22.50;;;17.20;;
57023;SDS011;42916;54.346;18.562;2023-09-19T01:50:49;21.40;;;18.70;;
57023;SDS011;42916;54.346;18.562;2023-09-19T01:53:23;22.90;;;19.00;;
57023;SDS011;42916;54.346;18.562;2023-09-19T01:55:54;21.40;;;18.90;;
57023;SDS011;42916;54.346;18.562;2023-09-19T01:58:26;23.40;;;17.60;;
57023;SDS011;42916;54.346;18.562;2023-09-19T02:00:57;23.00;;;17.00;;
57023;SDS011;42916;54.346;18.562;2023-09-19T02:03:26;21.50;;;14.20;;
57023;SDS011;42916;54.346;18.562;2023-09-19T02:05:55;17.00;;;13.00;;
57023;SDS011;42916;54.346;18.562;2023-09-19T02:08:22;17.80;;;13.50;;
57023;SDS011;42916;54.346;18.562;2023-09-19T02:10:52;19.50;;;13.40;;
57023;SDS011;42916;54.346;18.562;2023-09-19T02:13:20;17.90;;;13.20;;
57023;SDS011;42916;54.346;18.562;2023-09-19T02:15:48;16.80;;;13.10;;
57023;SDS011;42916;54.346;18.562;2023-09-19T02:18:15;14.80;;;12.20;;
57023;SDS011;42916;54.346;18.562;2023-09-19T02:20:43;16.00;;;11.70;;
57023;SDS011;42916;54.346;18.562;2023-09-19T02:23:10;15.70;;;11.50;;
57023;SDS011;42916;54.346;18.562;2023-09-19T02:25:37;12.20;;;10.20;;
57023;SDS011;42916;54.346;18.562;2023-09-19T02:28:08;14.50;;;10.80;;
57023;SDS011;42916;54.346;18.562;2023-09-19T02:30:35;16.00;;;10.50;;
57023;SDS011;42916;54.346;18.562;2023-09-19T02:33:03;12.20;;;9.40;;
57023;SDS011;42916;54.346;18.562;2023-09-19T02:35:30;11.00;;;8.40;;
57023;SDS011;42916;54.346;18.562;2023-09-19T02:38:02;10.10;;;7.50;;
57023;SDS011;42916;54.346;18.562;2023-09-19T02:40:32;8.50;;;7.10;;
57023;SDS011;42916;54.346;18.562;2023-09-19T02:43:02;9.10;;;6.80;;
57023;SDS011;42916;54.346;18.562;2023-09-19T02:45:29;8.60;;;7.10;;
57023;SDS011;42916;54.346;18.562;2023-09-19T02:47:57;12.50;;;7.20;;
57023;SDS011;42916;54.346;18.562;2023-09-19T02:50:24;8.30;;;5.40;;
57023;SDS011;42916;54.346;18.562;2023-09-19T02:52:51;6.90;;;5.70;;
57023;SDS011;42916;54.346;18.562;2023-09-19T02:55:18;8.50;;;5.50;;
57023;SDS011;42916;54.346;18.562;2023-09-19T02:57:52;6.50;;;4.50;;
57023;SDS011;42916;54.346;18.562;2023-09-19T03:00:23;6.90;;;5.00;;
57023;SDS011;42916;54.346;18.562;2023-09-19T03:02:52;6.40;;;4.90;;
57023;SDS011;42916;54.346;18.562;2023-09-19T03:05:21;8.30;;;5.00;;
57023;SDS011;42916;54.346;18.562;2023-09-19T03:07:50;8.30;;;5.20;;
57023;SDS011;42916;54.346;18.562;2023-09-19T03:10:17;7.60;;;4.10;;
57023;SDS011;42916;54.346;18.562;2023-09-19T03:12:47;8.00;;;4.80;;
57023;SDS011;42916;54.346;18.562;2023-09-19T03:15:15;6.60;;;3.60;;
57023;SDS011;42916;54.346;18.562;2023-09-19T03:17:46;6.50;;;4.30;;
57023;SDS011;42916;54.346;18.562;2023-09-19T03:20:15;8.80;;;5.30;;
57023;SDS011;42916;54.346;18.562;2023-09-19T03:22:44;5.60;;;4.50;;
57023;SDS011;42916;54.346;18.562;2023-09-19T03:25:11;6.60;;;4.80;;
57023;SDS011;42916;54.346;18.562;2023-09-19T03:27:39;7.20;;;4.20;;
57023;SDS011;42916;54.346;18.562;2023-09-19T03:30:07;6.00;;;4.30;;
57023;SDS011;42916;54.346;18.562;2023-09-19T03:32:48;7.90;;;4.00;;
57023;SDS011;42916;54.346;18.562;2023-09-19T03:35:16;8.10;;;4.20;;
57023;SDS011;42916;54.346;18.562;2023-09-19T03:37:44;8.50;;;3.50;;
57023;SDS011;42916;54.346;18.562;2023-09-19T03:40:11;6.70;;;3.80;;
57023;SDS011;42916;54.346;18.562;2023-09-19T03:42:41;8.50;;;4.10;;
57023;SDS011;42916;54.346;18.562;2023-09-19T03:45:10;7.30;;;4.70;;
57023;SDS011;42916;54.346;18.562;2023-09-19T03:47:46;9.70;;;4.10;;
57023;SDS011;42916;54.346;18.562;2023-09-19T03:50:15;6.10;;;3.40;;
57023;SDS011;42916;54.346;18.562;2023-09-19T03:52:44;6.20;;;3.80;;
57023;SDS011;42916;54.346;18.562;2023-09-19T03:55:11;7.50;;;4.10;;
57023;SDS011;42916;54.346;18.562;2023-09-19T03:57:39;5.50;;;3.50;;
57023;SDS011;42916;54.346;18.562;2023-09-19T04:00:06;5.10;;;3.50;;
57023;SDS011;42916;54.346;18.562;2023-09-19T04:02:41;8.00;;;3.90;;
57023;SDS011;42916;54.346;18.562;2023-09-19T04:05:08;5.90;;;3.20;;
57023;SDS011;42916;54.346;18.562;2023-09-19T04:07:36;8.20;;;4.00;;
57023;SDS011;42916;54.346;18.562;2023-09-19T04:10:02;8.80;;;3.90;;
57023;SDS011;42916;54.346;18.562;2023-09-19T04:12:29;5.50;;;3.70;;
57023;SDS011;42916;54.346;18.562;2023-09-19T04:14:56;5.60;;;4.00;;
57023;SDS011;42916;54.346;18.562;2023-09-19T04:17:23;7.00;;;4.20;;
57023;SDS011;42916;54.346;18.562;2023-09-19T04:19:50;7.30;;;4.90;;
57023;SDS011;42916;54.346;18.562;2023-09-19T04:22:17;7.80;;;4.40;;
57023;SDS011;42916;54.346;18.562;2023-09-19T04:24:44;7.80;;;4.30;;
57023;SDS011;42916;54.346;18.562;2023-09-19T04:27:10;8.10;;;4.40;;
57023;SDS011;42916;54.346;18.562;2023-09-19T04:29:40;6.00;;;4.20;;
57023;SDS011;42916;54.346;18.562;2023-09-19T04:32:10;9.50;;;5.00;;
57023;SDS011;42916;54.346;18.562;2023-09-19T04:37:06;8.00;;;4.40;;
57023;SDS011;42916;54.346;18.562;2023-09-19T04:39:32;7.90;;;4.50;;
57023;SDS011;42916;54.346;18.562;2023-09-19T04:42:00;9.40;;;5.30;;
57023;SDS011;42916;54.346;18.562;2023-09-19T04:44:27;9.90;;;4.70;;
57023;SDS011;42916;54.346;18.562;2023-09-19T04:46:54;8.90;;;5.20;;
57023;SDS011;42916;54.346;18.562;2023-09-19T04:49:21;10.00;;;5.10;;
57023;SDS011;42916;54.346;18.562;2023-09-19T04:51:47;8.00;;;5.20;;
57023;SDS011;42916;54.346;18.562;2023-09-19T04:54:14;8.70;;;5.60;;
57023;SDS011;42916;54.346;18.562;2023-09-19T04:56:41;7.90;;;4.60;;
57023;SDS011;42916;54.346;18.562;2023-09-19T04:59:08;9.30;;;4.70;;
57023;SDS011;42916;54.346;18.562;2023-09-19T05:01:37;7.00;;;4.70;;
57023;SDS011;42916;54.346;18.562;2023-09-19T05:04:03;9.10;;;5.60;;
57023;SDS011;42916;54.346;18.562;2023-09-19T05:06:31;8.90;;;5.20;;
57023;SDS011;42916;54.346;18.562;2023-09-19T05:09:01;7.50;;;5.10;;
57023;SDS011;42916;54.346;18.562;2023-09-19T05:11:31;10.50;;;5.10;;
57023;SDS011;42916;54.346;18.562;2023-09-19T05:13:58;9.40;;;5.30;;
57023;SDS011;42916;54.346;18.562;2023-09-19T05:16:28;8.60;;;4.90;;
57023;SDS011;42916;54.346;18.562;2023-09-19T05:18:56;11.80;;;4.80;;
57023;SDS011;42916;54.346;18.562;2023-09-19T05:21:24;10.40;;;5.50;;
57023;SDS011;42916;54.346;18.562;2023-09-19T05:23:51;8.00;;;5.20;;
57023;SDS011;42916;54.346;18.562;2023-09-19T05:26:19;8.90;;;4.80;;
57023;SDS011;42916;54.346;18.562;2023-09-19T05:28:46;9.90;;;5.40;;
57023;SDS011;42916;54.346;18.562;2023-09-19T05:31:14;8.60;;;5.30;;
57023;SDS011;42916;54.346;18.562;2023-09-19T05:33:42;10.80;;;5.40;;
57023;SDS011;42916;54.346;18.562;2023-09-19T05:36:09;9.20;;;5.40;;
57023;SDS011;42916;54.346;18.562;2023-09-19T05:38:38;7.90;;;4.50;;
57023;SDS011;42916;54.346;18.562;2023-09-19T05:41:07;7.90;;;4.20;;
57023;SDS011;42916;54.346;18.562;2023-09-19T05:43:40;9.90;;;5.60;;
57023;SDS011;42916;54.346;18.562;2023-09-19T05:46:07;7.90;;;4.40;;
57023;SDS011;42916;54.346;18.562;2023-09-19T05:48:34;8.20;;;4.50;;
57023;SDS011;42916;54.346;18.562;2023-09-19T05:51:01;7.80;;;3.80;;
57023;SDS011;42916;54.346;18.562;2023-09-19T05:53:27;8.60;;;4.70;;
57023;SDS011;42916;54.346;18.562;2023-09-19T05:55:55;6.70;;;4.40;;
57023;SDS011;42916;54.346;18.562;2023-09-19T05:58:22;7.80;;;4.40;;
57023;SDS011;42916;54.346;18.562;2023-09-19T06:00:49;6.30;;;3.60;;
57023;SDS011;42916;54.346;18.562;2023-09-19T06:03:16;5.30;;;4.00;;
57023;SDS011;42916;54.346;18.562;2023-09-19T06:05:45;12.90;;;4.50;;
57023;SDS011;42916;54.346;18.562;2023-09-19T06:08:16;6.80;;;4.20;;
57023;SDS011;42916;54.346;18.562;2023-09-19T06:10:43;8.00;;;3.60;;
57023;SDS011;42916;54.346;18.562;2023-09-19T06:13:09;5.30;;;3.10;;
57023;SDS011;42916;54.346;18.562;2023-09-19T06:15:37;5.80;;;3.50;;
57023;SDS011;42916;54.346;18.562;2023-09-19T06:18:03;6.00;;;3.20;;
57023;SDS011;42916;54.346;18.562;2023-09-19T06:20:31;4.10;;;2.90;;
57023;SDS011;42916;54.346;18.562;2023-09-19T06:22:59;6.50;;;2.90;;
57023;SDS011;42916;54.346;18.562;2023-09-19T06:25:28;8.10;;;3.60;;
57023;SDS011;42916;54.346;18.562;2023-09-19T06:27:55;5.10;;;3.70;;
57023;SDS011;42916;54.346;18.562;2023-09-19T06:30:22;6.80;;;3.80;;
57023;SDS011;42916;54.346;18.562;2023-09-19T06:32:57;7.80;;;3.70;;
57023;SDS011;42916;54.346;18.562;2023-09-19T06:35:25;7.40;;;3.70;;
57023;SDS011;42916;54.346;18.562;2023-09-19T06:37:53;6.70;;;3.40;;
57023;SDS011;42916;54.346;18.562;2023-09-19T06:40:19;5.30;;;3.80;;
57023;SDS011;42916;54.346;18.562;2023-09-19T06:42:49;8.20;;;4.00;;
57023;SDS011;42916;54.346;18.562;2023-09-19T06:45:17;7.70;;;4.40;;
57023;SDS011;42916;54.346;18.562;2023-09-19T06:47:45;9.50;;;4.80;;
57023;SDS011;42916;54.346;18.562;2023-09-19T06:50:19;7.70;;;4.30;;
57023;SDS011;42916;54.346;18.562;2023-09-19T06:52:55;6.40;;;3.90;;
57023;SDS011;42916;54.346;18.562;2023-09-19T06:55:23;7.40;;;4.20;;
57023;SDS011;42916;54.346;18.562;2023-09-19T06:57:51;7.20;;;3.90;;
57023;SDS011;42916;54.346;18.562;2023-09-19T07:00:20;6.80;;;4.20;;
57023;SDS011;42916;54.346;18.562;2023-09-19T07:03:00;7.20;;;4.00;;
57023;SDS011;42916;54.346;18.562;2023-09-19T07:05:30;6.70;;;3.80;;
57023;SDS011;42916;54.346;18.562;2023-09-19T07:08:01;5.60;;;4.10;;
57023;SDS011;42916;54.346;18.562;2023-09-19T07:10:28;7.60;;;4.30;;
57023;SDS011;42916;54.346;18.562;2023-09-19T07:12:55;8.30;;;4.20;;
57023;SDS011;42916;54.346;18.562;2023-09-19T07:15:23;6.70;;;4.90;;
57023;SDS011;42916;54.346;18.562;2023-09-19T07:17:54;8.10;;;4.10;;
57023;SDS011;42916;54.346;18.562;2023-09-19T07:20:24;6.30;;;4.20;;
57023;SDS011;42916;54.346;18.562;2023-09-19T07:22:58;5.40;;;3.60;;
57023;SDS011;42916;54.346;18.562;2023-09-19T07:25:28;7.00;;;3.70;;
57023;SDS011;42916;54.346;18.562;2023-09-19T07:27:55;5.60;;;3.70;;
57023;SDS011;42916;54.346;18.562;2023-09-19T07:30:26;6.00;;;4.00;;
57023;SDS011;42916;54.346;18.562;2023-09-19T07:32:53;3.90;;;3.50;;
57023;SDS011;42916;54.346;18.562;2023-09-19T07:35:20;8.00;;;4.00;;
57023;SDS011;42916;54.346;18.562;2023-09-19T07:37:47;5.80;;;4.30;;
57023;SDS011;42916;54.346;18.562;2023-09-19T07:40:15;5.20;;;3.90;;
57023;SDS011;42916;54.346;18.562;2023-09-19T07:42:42;6.70;;;3.40;;
57023;SDS011;42916;54.346;18.562;2023-09-19T07:45:12;5.40;;;3.60;;
57023;SDS011;42916;54.346;18.562;2023-09-19T07:47:47;6.30;;;3.90;;
57023;SDS011;42916;54.346;18.562;2023-09-19T07:50:18;4.70;;;3.90;;
57023;SDS011;42916;54.346;18.562;2023-09-19T07:52:46;5.60;;;4.20;;
57023;SDS011;42916;54.346;18.562;2023-09-19T07:55:14;4.60;;;4.00;;
57023;SDS011;42916;54.346;18.562;2023-09-19T07:57:46;4.10;;;3.50;;
57023;SDS011;42916;54.346;18.562;2023-09-19T08:00:15;4.70;;;3.80;;
57023;SDS011;42916;54.346;18.562;2023-09-19T08:02:43;7.70;;;3.80;;
57023;SDS011;42916;54.346;18.562;2023-09-19T08:05:10;7.40;;;4.00;;
57023;SDS011;42916;54.346;18.562;2023-09-19T08:07:39;5.20;;;3.90;;
57023;SDS011;42916;54.346;18.562;2023-09-19T08:10:07;8.10;;;4.50;;
57023;SDS011;42916;54.346;18.562;2023-09-19T08:12:39;7.40;;;4.20;;
57023;SDS011;42916;54.346;18.562;2023-09-19T08:15:13;5.90;;;4.20;;
57023;SDS011;42916;54.346;18.562;2023-09-19T08:17:42;5.80;;;4.10;;
57023;SDS011;42916;54.346;18.562;2023-09-19T08:20:09;5.10;;;4.50;;
57023;SDS011;42916;54.346;18.562;2023-09-19T08:22:52;5.90;;;3.70;;
57023;SDS011;42916;54.346;18.562;2023-09-19T08:27:48;4.80;;;3.20;;
57023;SDS011;42916;54.346;18.562;2023-09-19T08:30:16;7.10;;;3.50;;
57023;SDS011;42916;54.346;18.562;2023-09-19T08:32:50;4.70;;;4.20;;
57023;SDS011;42916;54.346;18.562;2023-09-19T08:35:17;6.30;;;3.50;;
57023;SDS011;42916;54.346;18.562;2023-09-19T08:37:46;6.00;;;3.70;;
57023;SDS011;42916;54.346;18.562;2023-09-19T08:40:13;8.60;;;3.30;;
57023;SDS011;42916;54.346;18.562;2023-09-19T08:42:56;3.80;;;2.70;;
57023;SDS011;42916;54.346;18.562;2023-09-19T08:45:23;6.10;;;3.40;;
57023;SDS011;42916;54.346;18.562;2023-09-19T08:51:02;4.60;;;3.40;;
57023;SDS011;42916;54.346;18.562;2023-09-19T08:56:07;4.00;;;2.70;;
57023;SDS011;42916;54.346;18.562;2023-09-19T08:58:44;4.70;;;2.90;;
57023;SDS011;42916;54.346;18.562;2023-09-19T09:01:17;5.50;;;3.10;;
57023;SDS011;42916;54.346;18.562;2023-09-19T09:03:51;6.70;;;2.60;;
57023;SDS011;42916;54.346;18.562;2023-09-19T09:06:19;4.10;;;3.20;;
57023;SDS011;42916;54.346;18.562;2023-09-19T09:08:47;4.00;;;2.90;;
57023;SDS011;42916;54.346;18.562;2023-09-19T09:11:16;3.70;;;2.80;;
57023;SDS011;42916;54.346;18.562;2023-09-19T09:13:47;3.70;;;2.60;;
57023;SDS011;42916;54.346;18.562;2023-09-19T09:16:14;5.10;;;3.00;;
57023;SDS011;42916;54.346;18.562;2023-09-19T09:18:45;3.90;;;2.70;;
57023;SDS011;42916;54.346;18.562;2023-09-19T09:21:13;4.40;;;2.40;;
57023;SDS011;42916;54.346;18.562;2023-09-19T09:23:42;3.10;;;2.40;;
57023;SDS011;42916;54.346;18.562;2023-09-19T09:26:08;3.10;;;2.60;;
57023;SDS011;42916;54.346;18.562;2023-09-19T09:28:35;7.40;;;2.70;;
57023;SDS011;42916;54.346;18.562;2023-09-19T09:31:32;4.50;;;2.60;;
57023;SDS011;42916;54.346;18.562;2023-09-19T09:33:58;4.60;;;2.30;;
57023;SDS011;42916;54.346;18.562;2023-09-19T09:36:35;3.60;;;2.20;;
57023;SDS011;42916;54.346;18.562;2023-09-19T09:39:03;4.10;;;2.50;;
57023;SDS011;42916;54.346;18.562;2023-09-19T09:41:42;4.20;;;2.30;;
57023;SDS011;42916;54.346;18.562;2023-09-19T09:44:16;4.30;;;2.30;;
57023;SDS011;42916;54.346;18.562;2023-09-19T09:46:47;4.00;;;2.40;;
57023;SDS011;42916;54.346;18.562;2023-09-19T09:49:24;5.30;;;2.10;;
57023;SDS011;42916;54.346;18.562;2023-09-19T09:52:04;3.20;;;2.00;;
57023;SDS011;42916;54.346;18.562;2023-09-19T09:54:34;3.90;;;2.10;;
57023;SDS011;42916;54.346;18.562;2023-09-19T09:57:08;5.80;;;2.60;;
57023;SDS011;42916;54.346;18.562;2023-09-19T09:59:52;5.40;;;2.30;;
57023;SDS011;42916;54.346;18.562;2023-09-19T10:02:35;4.30;;;2.30;;
57023;SDS011;42916;54.346;18.562;2023-09-19T10:05:14;6.10;;;2.00;;
57023;SDS011;42916;54.346;18.562;2023-09-19T10:07:54;6.00;;;2.20;;
57023;SDS011;42916;54.346;18.562;2023-09-19T10:10:36;4.10;;;2.20;;
57023;SDS011;42916;54.346;18.562;2023-09-19T10:13:12;3.60;;;2.30;;
57023;SDS011;42916;54.346;18.562;2023-09-19T10:15:47;4.80;;;2.10;;
57023;SDS011;42916;54.346;18.562;2023-09-19T10:18:23;2.30;;;2.00;;
57023;SDS011;42916;54.346;18.562;2023-09-19T10:20:54;4.30;;;2.30;;
57023;SDS011;42916;54.346;18.562;2023-09-19T10:23:23;3.20;;;2.10;;
57023;SDS011;42916;54.346;18.562;2023-09-19T10:25:53;3.50;;;2.10;;
57023;SDS011;42916;54.346;18.562;2023-09-19T10:28:20;3.50;;;1.90;;
57023;SDS011;42916;54.346;18.562;2023-09-19T10:30:51;3.20;;;1.90;;
57023;SDS011;42916;54.346;18.562;2023-09-19T10:33:20;2.00;;;1.60;;
57023;SDS011;42916;54.346;18.562;2023-09-19T10:35:52;3.10;;;1.80;;
57023;SDS011;42916;54.346;18.562;2023-09-19T10:38:23;3.80;;;1.70;;
57023;SDS011;42916;54.346;18.562;2023-09-19T10:43:29;3.00;;;2.10;;
57023;SDS011;42916;54.346;18.562;2023-09-19T10:46:01;4.30;;;1.90;;
57023;SDS011;42916;54.346;18.562;2023-09-19T10:48:32;3.90;;;1.70;;
57023;SDS011;42916;54.346;18.562;2023-09-19T10:51:12;4.20;;;1.80;;
57023;SDS011;42916;54.346;18.562;2023-09-19T10:53:51;2.00;;;1.30;;
57023;SDS011;42916;54.346;18.562;2023-09-19T10:56:23;5.50;;;1.70;;
57023;SDS011;42916;54.346;18.562;2023-09-19T10:59:07;3.40;;;1.40;;
57023;SDS011;42916;54.346;18.562;2023-09-19T11:01:43;3.50;;;1.50;;
57023;SDS011;42916;54.346;18.562;2023-09-19T11:04:20;4.10;;;2.40;;
57023;SDS011;42916;54.346;18.562;2023-09-19T11:07:14;2.50;;;1.60;;
57023;SDS011;42916;54.346;18.562;2023-09-19T11:09:48;2.20;;;1.50;;
57023;SDS011;42916;54.346;18.562;2023-09-19T11:14:57;3.60;;;1.60;;
57023;SDS011;42916;54.346;18.562;2023-09-19T11:17:31;3.80;;;1.60;;
57023;SDS011;42916;54.346;18.562;2023-09-19T11:30:36;6.00;;;2.00;;
57023;SDS011;42916;54.346;18.562;2023-09-19T11:33:16;3.70;;;1.80;;
57023;SDS011;42916;54.346;18.562;2023-09-19T11:46:30;3.30;;;2.10;;
57023;SDS011;42916;54.346;18.562;2023-09-19T11:49:05;3.40;;;1.90;;
57023;SDS011;42916;54.346;18.562;2023-09-19T11:51:42;2.90;;;1.70;;
57023;SDS011;42916;54.346;18.562;2023-09-19T11:54:10;3.30;;;1.90;;
57023;SDS011;42916;54.346;18.562;2023-09-19T11:56:44;4.00;;;2.10;;
57023;SDS011;42916;54.346;18.562;2023-09-19T11:59:19;5.20;;;2.10;;
57023;SDS011;42916;54.346;18.562;2023-09-19T12:01:51;4.50;;;1.90;;
57023;SDS011;42916;54.346;18.562;2023-09-19T12:07:08;3.70;;;2.30;;
57023;SDS011;42916;54.346;18.562;2023-09-19T12:09:42;6.30;;;3.90;;
57023;SDS011;42916;54.346;18.562;2023-09-19T12:12:10;4.20;;;1.80;;
57023;SDS011;42916;54.346;18.562;2023-09-19T12:14:47;3.40;;;1.60;;
57023;SDS011;42916;54.346;18.562;2023-09-19T12:17:17;2.00;;;1.40;;
57023;SDS011;42916;54.346;18.562;2023-09-19T12:19:55;3.30;;;1.70;;
57023;SDS011;42916;54.346;18.562;2023-09-19T12:22:23;2.70;;;1.70;;
57023;SDS011;42916;54.346;18.562;2023-09-19T12:24:51;3.00;;;1.90;;
57023;SDS011;42916;54.346;18.562;2023-09-19T12:27:20;3.70;;;1.80;;
57023;SDS011;42916;54.346;18.562;2023-09-19T12:29:49;4.00;;;1.70;;
57023;SDS011;42916;54.346;18.562;2023-09-19T12:32:16;2.50;;;1.60;;
57023;SDS011;42916;54.346;18.562;2023-09-19T12:34:52;3.20;;;1.60;;
57023;SDS011;42916;54.346;18.562;2023-09-19T12:37:21;3.20;;;1.60;;
57023;SDS011;42916;54.346;18.562;2023-09-19T12:39:49;3.70;;;1.80;;
57023;SDS011;42916;54.346;18.562;2023-09-19T12:42:23;4.00;;;1.70;;
57023;SDS011;42916;54.346;18.562;2023-09-19T12:44:51;4.40;;;2.00;;
57023;SDS011;42916;54.346;18.562;2023-09-19T12:47:23;1.80;;;1.40;;
57023;SDS011;42916;54.346;18.562;2023-09-19T12:52:44;5.10;;;1.60;;
57023;SDS011;42916;54.346;18.562;2023-09-19T12:55:25;3.80;;;1.60;;
57023;SDS011;42916;54.346;18.562;2023-09-19T12:58:00;3.40;;;1.70;;
57023;SDS011;42916;54.346;18.562;2023-09-19T13:00:42;1.80;;;1.20;;
57023;SDS011;42916;54.346;18.562;2023-09-19T13:05:52;11.00;;;5.40;;
57023;SDS011;42916;54.346;18.562;2023-09-19T13:08:28;5.30;;;1.60;;
57023;SDS011;42916;54.346;18.562;2023-09-19T13:11:06;1.80;;;1.40;;
57023;SDS011;42916;54.346;18.562;2023-09-19T13:13:45;3.00;;;1.30;;
57023;SDS011;42916;54.346;18.562;2023-09-19T13:16:20;2.70;;;1.20;;
57023;SDS011;42916;54.346;18.562;2023-09-19T13:18:50;2.40;;;1.40;;
57023;SDS011;42916;54.346;18.562;2023-09-19T13:21:27;2.90;;;1.20;;
57023;SDS011;42916;54.346;18.562;2023-09-19T13:24:18;3.90;;;1.40;;
57023;SDS011;42916;54.346;18.562;2023-09-19T13:26:47;2.10;;;1.20;;
57023;SDS011;42916;54.346;18.562;2023-09-19T13:29:14;2.30;;;1.40;;
57023;SDS011;42916;54.346;18.562;2023-09-19T13:31:47;3.30;;;1.50;;
57023;SDS011;42916;54.346;18.562;2023-09-19T13:34:19;2.70;;;1.20;;
57023;SDS011;42916;54.346;18.562;2023-09-19T13:36:46;2.30;;;1.50;;
57023;SDS011;42916;54.346;18.562;2023-09-19T13:39:16;3.00;;;1.70;;
57023;SDS011;42916;54.346;18.562;2023-09-19T13:41:44;2.50;;;1.50;;
57023;SDS011;42916;54.346;18.562;2023-09-19T13:44:13;4.60;;;1.40;;
57023;SDS011;42916;54.346;18.562;2023-09-19T13:46:40;3.20;;;1.50;;
57023;SDS011;42916;54.346;18.562;2023-09-19T13:49:11;3.30;;;1.40;;
57023;SDS011;42916;54.346;18.562;2023-09-19T13:51:38;2.70;;;1.30;;
57023;SDS011;42916;54.346;18.562;2023-09-19T13:54:05;2.50;;;1.40;;
57023;SDS011;42916;54.346;18.562;2023-09-19T13:56:32;2.30;;;1.50;;
57023;SDS011;42916;54.346;18.562;2023-09-19T13:59:00;5.00;;;1.60;;
57023;SDS011;42916;54.346;18.562;2023-09-19T14:01:26;3.40;;;1.50;;
57023;SDS011;42916;54.346;18.562;2023-09-19T14:03:53;3.00;;;1.50;;
57023;SDS011;42916;54.346;18.562;2023-09-19T14:06:23;2.70;;;1.80;;
57023;SDS011;42916;54.346;18.562;2023-09-19T14:08:50;4.20;;;1.60;;
57023;SDS011;42916;54.346;18.562;2023-09-19T14:11:17;4.30;;;1.70;;
57023;SDS011;42916;54.346;18.562;2023-09-19T14:13:43;2.90;;;1.40;;
57023;SDS011;42916;54.346;18.562;2023-09-19T14:16:13;1.80;;;1.50;;
57023;SDS011;42916;54.346;18.562;2023-09-19T14:18:40;2.30;;;1.40;;
57023;SDS011;42916;54.346;18.562;2023-09-19T14:21:08;3.80;;;1.90;;
57023;SDS011;42916;54.346;18.562;2023-09-19T14:23:38;3.00;;;1.80;;
57023;SDS011;42916;54.346;18.562;2023-09-19T14:26:05;4.50;;;1.80;;
57023;SDS011;42916;54.346;18.562;2023-09-19T14:28:32;5.90;;;1.90;;
57023;SDS011;42916;54.346;18.562;2023-09-19T14:31:08;4.10;;;1.90;;
57023;SDS011;42916;54.346;18.562;2023-09-19T14:33:37;4.20;;;1.70;;
57023;SDS011;42916;54.346;18.562;2023-09-19T14:36:05;3.00;;;1.70;;
57023;SDS011;42916;54.346;18.562;2023-09-19T14:41:03;4.30;;;1.60;;
57023;SDS011;42916;54.346;18.562;2023-09-19T14:43:32;3.70;;;1.70;;
57023;SDS011;42916;54.346;18.562;2023-09-19T14:48:31;5.00;;;1.80;;
57023;SDS011;42916;54.346;18.562;2023-09-19T14:51:04;4.10;;;1.80;;
57023;SDS011;42916;54.346;18.562;2023-09-19T14:53:33;4.10;;;1.40;;
57023;SDS011;42916;54.346;18.562;2023-09-19T14:56:00;3.90;;;1.70;;
57023;SDS011;42916;54.346;18.562;2023-09-19T14:58:31;3.20;;;1.40;;
57023;SDS011;42916;54.346;18.562;2023-09-19T15:01:06;6.30;;;1.70;;
57023;SDS011;42916;54.346;18.562;2023-09-19T15:03:34;4.80;;;1.60;;
57023;SDS011;42916;54.346;18.562;2023-09-19T15:06:02;3.40;;;1.70;;
57023;SDS011;42916;54.346;18.562;2023-09-19T15:08:34;3.40;;;1.80;;
57023;SDS011;42916;54.346;18.562;2023-09-19T15:11:04;4.00;;;1.60;;
57023;SDS011;42916;54.346;18.562;2023-09-19T15:13:32;2.80;;;1.80;;
57023;SDS011;42916;54.346;18.562;2023-09-19T15:16:00;3.90;;;1.80;;
57023;SDS011;42916;54.346;18.562;2023-09-19T15:18:31;3.90;;;2.00;;
57023;SDS011;42916;54.346;18.562;2023-09-19T15:23:27;2.90;;;1.70;;
57023;SDS011;42916;54.346;18.562;2023-09-19T15:25:56;3.90;;;2.20;;
57023;SDS011;42916;54.346;18.562;2023-09-19T15:28:23;3.70;;;2.20;;
57023;SDS011;42916;54.346;18.562;2023-09-19T15:30:49;3.90;;;2.10;;
57023;SDS011;42916;54.346;18.562;2023-09-19T15:33:16;4.90;;;2.10;;
57023;SDS011;42916;54.346;18.562;2023-09-19T15:35:44;4.50;;;2.10;;
57023;SDS011;42916;54.346;18.562;2023-09-19T15:38:10;3.40;;;2.10;;
57023;SDS011;42916;54.346;18.562;2023-09-19T15:40:45;3.50;;;2.00;;
57023;SDS011;42916;54.346;18.562;2023-09-19T15:43:13;5.40;;;2.60;;
57023;SDS011;42916;54.346;18.562;2023-09-19T15:45:40;4.90;;;2.10;;
57023;SDS011;42916;54.346;18.562;2023-09-19T15:48:08;3.20;;;2.10;;
57023;SDS011;42916;54.346;18.562;2023-09-19T15:50:34;4.10;;;1.90;;
57023;SDS011;42916;54.346;18.562;2023-09-19T15:53:01;5.20;;;2.20;;
57023;SDS011;42916;54.346;18.562;2023-09-19T15:55:28;5.80;;;2.20;;